sensor_id;sensor_type;location;lat;lon;timestamp;P1;durP1;ratioP1;P2;durP2;ratioP2
8574;SDS011;4325;42.520;27.448;2022-08-19T00:01:23;17.93;;;16.10;;
8574;SDS011;4325;42.520;27.448;2022-08-19T00:03:50;20.27;;;15.03;;
8574;SDS011;4325;42.520;27.448;2022-08-19T00:06:17;16.23;;;14.57;;
8574;SDS011;4325;42.520;27.448;2022-08-19T00:08:44;16.03;;;14.50;;
8574;SDS011;4325;42.520;27.448;2022-08-19T00:11:11;15.43;;;13.80;;
8574;SDS011;4325;42.520;27.448;2022-08-19T00:13:38;17.47;;;14.13;;
8574;SDS011;4325;42.520;27.448;2022-08-19T00:16:06;16.50;;;14.83;;
8574;SDS011;4325;42.520;27.448;2022-08-19T00:18:33;17.23;;;15.43;;
8574;SDS011;4325;42.520;27.448;2022-08-19T00:21:00;16.43;;;14.93;;
8574;SDS011;4325;42.520;27.448;2022-08-19T00:23:28;16.10;;;14.53;;
8574;SDS011;4325;42.520;27.448;2022-08-19T00:25:55;16.17;;;14.60;;
8574;SDS011;4325;42.520;27.448;2022-08-19T00:28:22;16.67;;;14.53;;
8574;SDS011;4325;42.520;27.448;2022-08-19T00:30:49;15.33;;;13.97;;
8574;SDS011;4325;42.520;27.448;2022-08-19T00:33:19;15.03;;;13.53;;
8574;SDS011;4325;42.520;27.448;2022-08-19T00:35:46;15.80;;;14.20;;
8574;SDS011;4325;42.520;27.448;2022-08-19T00:38:13;15.83;;;14.13;;
8574;SDS011;4325;42.520;27.448;2022-08-19T00:40:42;15.63;;;14.03;;
8574;SDS011;4325;42.520;27.448;2022-08-19T00:43:11;13.97;;;12.57;;
8574;SDS011;4325;42.520;27.448;2022-08-19T00:45:44;16.10;;;13.07;;
8574;SDS011;4325;42.520;27.448;2022-08-19T00:48:11;14.53;;;12.97;;
8574;SDS011;4325;42.520;27.448;2022-08-19T00:50:39;17.83;;;13.87;;
8574;SDS011;4325;42.520;27.448;2022-08-19T00:53:08;14.90;;;13.40;;
8574;SDS011;4325;42.520;27.448;2022-08-19T00:55:36;15.33;;;13.90;;
8574;SDS011;4325;42.520;27.448;2022-08-19T00:58:06;15.37;;;13.77;;
8574;SDS011;4325;42.520;27.448;2022-08-19T01:00:36;16.63;;;13.87;;
8574;SDS011;4325;42.520;27.448;2022-08-19T01:03:04;15.17;;;13.53;;
8574;SDS011;4325;42.520;27.448;2022-08-19T01:05:32;14.80;;;13.30;;
8574;SDS011;4325;42.520;27.448;2022-08-19T01:08:01;16.07;;;14.57;;
8574;SDS011;4325;42.520;27.448;2022-08-19T01:10:31;14.63;;;13.13;;
8574;SDS011;4325;42.520;27.448;2022-08-19T01:13:01;14.13;;;12.83;;
8574;SDS011;4325;42.520;27.448;2022-08-19T01:15:31;14.63;;;13.13;;
8574;SDS011;4325;42.520;27.448;2022-08-19T01:18:01;14.37;;;13.07;;
8574;SDS011;4325;42.520;27.448;2022-08-19T01:20:32;16.67;;;12.93;;
8574;SDS011;4325;42.520;27.448;2022-08-19T01:23:00;15.40;;;13.80;;
8574;SDS011;4325;42.520;27.448;2022-08-19T01:25:29;14.50;;;13.03;;
8574;SDS011;4325;42.520;27.448;2022-08-19T01:27:58;16.00;;;13.13;;
8574;SDS011;4325;42.520;27.448;2022-08-19T01:30:26;16.23;;;13.63;;
8574;SDS011;4325;42.520;27.448;2022-08-19T01:32:55;15.73;;;13.37;;
8574;SDS011;4325;42.520;27.448;2022-08-19T01:35:26;15.33;;;13.83;;
8574;SDS011;4325;42.520;27.448;2022-08-19T01:37:55;15.37;;;13.30;;
8574;SDS011;4325;42.520;27.448;2022-08-19T01:40:27;15.23;;;13.63;;
8574;SDS011;4325;42.520;27.448;2022-08-19T01:42:57;16.47;;;13.73;;
8574;SDS011;4325;42.520;27.448;2022-08-19T01:45:25;15.93;;;14.30;;
8574;SDS011;4325;42.520;27.448;2022-08-19T01:47:53;15.03;;;13.73;;
8574;SDS011;4325;42.520;27.448;2022-08-19T01:50:21;16.40;;;13.67;;
8574;SDS011;4325;42.520;27.448;2022-08-19T01:52:48;15.67;;;14.07;;
8574;SDS011;4325;42.520;27.448;2022-08-19T01:55:16;15.63;;;14.17;;
8574;SDS011;4325;42.520;27.448;2022-08-19T01:57:49;17.17;;;13.60;;
8574;SDS011;4325;42.520;27.448;2022-08-19T02:00:22;15.27;;;13.67;;
8574;SDS011;4325;42.520;27.448;2022-08-19T02:02:50;15.67;;;14.27;;
8574;SDS011;4325;42.520;27.448;2022-08-19T02:05:17;18.23;;;14.63;;
8574;SDS011;4325;42.520;27.448;2022-08-19T02:07:46;16.47;;;14.87;;
8574;SDS011;4325;42.520;27.448;2022-08-19T02:10:15;16.47;;;14.83;;
8574;SDS011;4325;42.520;27.448;2022-08-19T02:12:47;17.73;;;15.90;;
8574;SDS011;4325;42.520;27.448;2022-08-19T02:15:15;17.40;;;15.67;;
8574;SDS011;4325;42.520;27.448;2022-08-19T02:17:43;17.67;;;16.03;;
8574;SDS011;4325;42.520;27.448;2022-08-19T02:20:11;16.53;;;14.93;;
8574;SDS011;4325;42.520;27.448;2022-08-19T02:22:38;16.23;;;14.40;;
8574;SDS011;4325;42.520;27.448;2022-08-19T02:25:06;19.13;;;17.20;;
8574;SDS011;4325;42.520;27.448;2022-08-19T02:27:34;18.63;;;16.07;;
8574;SDS011;4325;42.520;27.448;2022-08-19T02:30:02;18.10;;;16.20;;
8574;SDS011;4325;42.520;27.448;2022-08-19T02:32:30;17.23;;;15.53;;
8574;SDS011;4325;42.520;27.448;2022-08-19T02:34:58;17.20;;;15.40;;
8574;SDS011;4325;42.520;27.448;2022-08-19T02:37:25;18.20;;;16.50;;
8574;SDS011;4325;42.520;27.448;2022-08-19T02:40:09;20.00;;;17.73;;
8574;SDS011;4325;42.520;27.448;2022-08-19T02:42:37;17.33;;;15.43;;
8574;SDS011;4325;42.520;27.448;2022-08-19T02:45:06;19.40;;;17.40;;
8574;SDS011;4325;42.520;27.448;2022-08-19T02:47:34;19.70;;;17.90;;
8574;SDS011;4325;42.520;27.448;2022-08-19T02:50:01;22.53;;;16.57;;
8574;SDS011;4325;42.520;27.448;2022-08-19T02:52:30;18.83;;;16.77;;
8574;SDS011;4325;42.520;27.448;2022-08-19T02:54:58;19.67;;;17.70;;
8574;SDS011;4325;42.520;27.448;2022-08-19T02:57:26;19.13;;;17.03;;
8574;SDS011;4325;42.520;27.448;2022-08-19T02:59:53;21.63;;;17.23;;
8574;SDS011;4325;42.520;27.448;2022-08-19T03:02:21;19.77;;;17.97;;
8574;SDS011;4325;42.520;27.448;2022-08-19T03:04:48;19.23;;;17.33;;
8574;SDS011;4325;42.520;27.448;2022-08-19T03:07:16;18.77;;;17.03;;
8574;SDS011;4325;42.520;27.448;2022-08-19T03:09:43;19.30;;;16.80;;
8574;SDS011;4325;42.520;27.448;2022-08-19T03:12:11;20.30;;;18.40;;
8574;SDS011;4325;42.520;27.448;2022-08-19T03:14:38;21.57;;;17.87;;
8574;SDS011;4325;42.520;27.448;2022-08-19T03:17:24;19.07;;;17.03;;
8574;SDS011;4325;42.520;27.448;2022-08-19T03:19:51;21.90;;;17.57;;
8574;SDS011;4325;42.520;27.448;2022-08-19T03:22:18;19.70;;;17.87;;
8574;SDS011;4325;42.520;27.448;2022-08-19T03:24:45;19.40;;;17.23;;
8574;SDS011;4325;42.520;27.448;2022-08-19T03:27:12;17.87;;;16.10;;
8574;SDS011;4325;42.520;27.448;2022-08-19T03:29:39;19.17;;;17.37;;
8574;SDS011;4325;42.520;27.448;2022-08-19T03:32:06;20.03;;;18.23;;
8574;SDS011;4325;42.520;27.448;2022-08-19T03:34:34;21.10;;;18.77;;
8574;SDS011;4325;42.520;27.448;2022-08-19T03:37:04;20.93;;;17.13;;
8574;SDS011;4325;42.520;27.448;2022-08-19T03:39:34;23.70;;;21.50;;
8574;SDS011;4325;42.520;27.448;2022-08-19T03:42:02;19.63;;;17.67;;
8574;SDS011;4325;42.520;27.448;2022-08-19T03:44:30;21.73;;;19.50;;
8574;SDS011;4325;42.520;27.448;2022-08-19T03:46:58;19.40;;;16.60;;
8574;SDS011;4325;42.520;27.448;2022-08-19T03:49:27;25.17;;;22.60;;
8574;SDS011;4325;42.520;27.448;2022-08-19T03:51:57;19.30;;;17.50;;
8574;SDS011;4325;42.520;27.448;2022-08-19T03:54:26;18.83;;;16.83;;
8574;SDS011;4325;42.520;27.448;2022-08-19T03:56:54;20.60;;;16.83;;
8574;SDS011;4325;42.520;27.448;2022-08-19T03:59:23;19.70;;;17.70;;
8574;SDS011;4325;42.520;27.448;2022-08-19T04:01:51;17.93;;;16.33;;
8574;SDS011;4325;42.520;27.448;2022-08-19T04:04:19;19.03;;;15.93;;
8574;SDS011;4325;42.520;27.448;2022-08-19T04:06:46;17.30;;;15.70;;
8574;SDS011;4325;42.520;27.448;2022-08-19T04:09:15;17.80;;;16.10;;
8574;SDS011;4325;42.520;27.448;2022-08-19T04:11:43;18.27;;;16.33;;
8574;SDS011;4325;42.520;27.448;2022-08-19T04:14:12;18.63;;;16.87;;
8574;SDS011;4325;42.520;27.448;2022-08-19T04:16:41;18.67;;;17.00;;
8574;SDS011;4325;42.520;27.448;2022-08-19T04:19:09;20.30;;;18.07;;
8574;SDS011;4325;42.520;27.448;2022-08-19T04:21:37;20.20;;;18.17;;
8574;SDS011;4325;42.520;27.448;2022-08-19T04:24:04;19.93;;;17.83;;
8574;SDS011;4325;42.520;27.448;2022-08-19T04:26:34;18.57;;;16.70;;
8574;SDS011;4325;42.520;27.448;2022-08-19T04:29:04;18.87;;;17.13;;
8574;SDS011;4325;42.520;27.448;2022-08-19T04:31:33;22.73;;;20.53;;
8574;SDS011;4325;42.520;27.448;2022-08-19T04:34:01;19.43;;;17.60;;
8574;SDS011;4325;42.520;27.448;2022-08-19T04:36:30;20.90;;;17.97;;
8574;SDS011;4325;42.520;27.448;2022-08-19T04:38:59;18.60;;;16.80;;
8574;SDS011;4325;42.520;27.448;2022-08-19T04:41:30;21.90;;;16.03;;
8574;SDS011;4325;42.520;27.448;2022-08-19T04:44:24;18.80;;;14.93;;
8574;SDS011;4325;42.520;27.448;2022-08-19T04:46:52;17.83;;;14.23;;
8574;SDS011;4325;42.520;27.448;2022-08-19T04:49:20;19.70;;;14.60;;
8574;SDS011;4325;42.520;27.448;2022-08-19T04:51:49;17.30;;;14.30;;
8574;SDS011;4325;42.520;27.448;2022-08-19T04:54:17;17.70;;;15.00;;
8574;SDS011;4325;42.520;27.448;2022-08-19T04:56:47;19.57;;;15.47;;
8574;SDS011;4325;42.520;27.448;2022-08-19T04:59:16;20.23;;;14.80;;
8574;SDS011;4325;42.520;27.448;2022-08-19T05:01:45;18.67;;;16.43;;
8574;SDS011;4325;42.520;27.448;2022-08-19T05:04:14;18.07;;;14.27;;
8574;SDS011;4325;42.520;27.448;2022-08-19T05:06:42;16.43;;;13.60;;
8574;SDS011;4325;42.520;27.448;2022-08-19T05:09:09;18.70;;;16.53;;
8574;SDS011;4325;42.520;27.448;2022-08-19T05:11:36;20.57;;;14.47;;
8574;SDS011;4325;42.520;27.448;2022-08-19T05:14:04;16.10;;;14.40;;
8574;SDS011;4325;42.520;27.448;2022-08-19T05:16:31;15.43;;;13.93;;
8574;SDS011;4325;42.520;27.448;2022-08-19T05:19:00;15.83;;;14.53;;
8574;SDS011;4325;42.520;27.448;2022-08-19T05:21:44;28.90;;;16.37;;
8574;SDS011;4325;42.520;27.448;2022-08-19T05:24:29;19.33;;;17.37;;
8574;SDS011;4325;42.520;27.448;2022-08-19T05:26:58;21.10;;;18.80;;
8574;SDS011;4325;42.520;27.448;2022-08-19T05:29:26;20.30;;;18.30;;
8574;SDS011;4325;42.520;27.448;2022-08-19T05:31:54;19.73;;;17.93;;
8574;SDS011;4325;42.520;27.448;2022-08-19T05:34:23;23.63;;;17.87;;
8574;SDS011;4325;42.520;27.448;2022-08-19T05:36:51;23.37;;;18.33;;
8574;SDS011;4325;42.520;27.448;2022-08-19T05:39:21;21.27;;;17.27;;
8574;SDS011;4325;42.520;27.448;2022-08-19T05:41:49;18.60;;;16.40;;
8574;SDS011;4325;42.520;27.448;2022-08-19T05:44:18;18.90;;;16.00;;
8574;SDS011;4325;42.520;27.448;2022-08-19T05:46:46;19.20;;;17.37;;
8574;SDS011;4325;42.520;27.448;2022-08-19T05:49:14;21.57;;;16.10;;
8574;SDS011;4325;42.520;27.448;2022-08-19T05:51:43;20.80;;;14.87;;
8574;SDS011;4325;42.520;27.448;2022-08-19T05:54:10;23.17;;;20.47;;
8574;SDS011;4325;42.520;27.448;2022-08-19T05:56:39;17.13;;;14.83;;
8574;SDS011;4325;42.520;27.448;2022-08-19T05:59:07;21.87;;;16.17;;
8574;SDS011;4325;42.520;27.448;2022-08-19T06:01:36;20.37;;;15.07;;
8574;SDS011;4325;42.520;27.448;2022-08-19T06:04:04;22.63;;;14.77;;
8574;SDS011;4325;42.520;27.448;2022-08-19T06:06:31;16.70;;;14.43;;
8574;SDS011;4325;42.520;27.448;2022-08-19T06:09:01;21.73;;;14.87;;
8574;SDS011;4325;42.520;27.448;2022-08-19T06:11:32;16.37;;;13.57;;
8574;SDS011;4325;42.520;27.448;2022-08-19T06:14:01;15.43;;;12.63;;
8574;SDS011;4325;42.520;27.448;2022-08-19T06:16:30;14.13;;;12.63;;
8574;SDS011;4325;42.520;27.448;2022-08-19T06:19:01;11.70;;;10.67;;
8574;SDS011;4325;42.520;27.448;2022-08-19T06:21:32;14.23;;;11.60;;
8574;SDS011;4325;42.520;27.448;2022-08-19T06:24:01;14.23;;;9.33;;
8574;SDS011;4325;42.520;27.448;2022-08-19T06:26:28;12.20;;;9.20;;
8574;SDS011;4325;42.520;27.448;2022-08-19T06:28:56;12.30;;;8.97;;
8574;SDS011;4325;42.520;27.448;2022-08-19T06:31:24;12.33;;;9.87;;
8574;SDS011;4325;42.520;27.448;2022-08-19T06:33:53;10.93;;;9.90;;
8574;SDS011;4325;42.520;27.448;2022-08-19T06:36:21;10.17;;;8.73;;
8574;SDS011;4325;42.520;27.448;2022-08-19T06:38:52;13.30;;;9.30;;
8574;SDS011;4325;42.520;27.448;2022-08-19T06:41:20;13.97;;;9.10;;
8574;SDS011;4325;42.520;27.448;2022-08-19T06:43:47;15.00;;;8.40;;
8574;SDS011;4325;42.520;27.448;2022-08-19T06:46:15;10.00;;;8.93;;
8574;SDS011;4325;42.520;27.448;2022-08-19T06:48:43;12.37;;;7.50;;
8574;SDS011;4325;42.520;27.448;2022-08-19T06:51:10;14.10;;;8.87;;
8574;SDS011;4325;42.520;27.448;2022-08-19T06:53:40;10.17;;;8.50;;
8574;SDS011;4325;42.520;27.448;2022-08-19T06:56:12;11.33;;;8.57;;
8574;SDS011;4325;42.520;27.448;2022-08-19T06:58:42;11.30;;;8.80;;
8574;SDS011;4325;42.520;27.448;2022-08-19T07:01:09;11.27;;;8.13;;
8574;SDS011;4325;42.520;27.448;2022-08-19T07:03:36;11.43;;;8.83;;
8574;SDS011;4325;42.520;27.448;2022-08-19T07:06:05;10.30;;;7.93;;
8574;SDS011;4325;42.520;27.448;2022-08-19T07:08:35;10.57;;;7.93;;
8574;SDS011;4325;42.520;27.448;2022-08-19T07:11:02;16.37;;;8.50;;
8574;SDS011;4325;42.520;27.448;2022-08-19T07:13:33;11.27;;;8.10;;
8574;SDS011;4325;42.520;27.448;2022-08-19T07:16:04;9.70;;;8.43;;
8574;SDS011;4325;42.520;27.448;2022-08-19T07:18:31;11.50;;;8.47;;
8574;SDS011;4325;42.520;27.448;2022-08-19T07:21:05;9.20;;;8.30;;
8574;SDS011;4325;42.520;27.448;2022-08-19T07:23:32;9.90;;;7.43;;
8574;SDS011;4325;42.520;27.448;2022-08-19T07:26:03;10.03;;;8.40;;
8574;SDS011;4325;42.520;27.448;2022-08-19T07:28:31;10.43;;;7.97;;
8574;SDS011;4325;42.520;27.448;2022-08-19T07:30:58;15.87;;;8.17;;
8574;SDS011;4325;42.520;27.448;2022-08-19T07:33:30;9.53;;;7.70;;
8574;SDS011;4325;42.520;27.448;2022-08-19T07:35:57;9.43;;;8.07;;
8574;SDS011;4325;42.520;27.448;2022-08-19T07:38:24;15.83;;;8.77;;
8574;SDS011;4325;42.520;27.448;2022-08-19T07:40:51;10.43;;;7.50;;
8574;SDS011;4325;42.520;27.448;2022-08-19T07:43:19;8.70;;;7.80;;
8574;SDS011;4325;42.520;27.448;2022-08-19T07:45:50;13.13;;;8.50;;
8574;SDS011;4325;42.520;27.448;2022-08-19T07:48:17;10.53;;;7.53;;
8574;SDS011;4325;42.520;27.448;2022-08-19T07:50:45;14.70;;;7.60;;
8574;SDS011;4325;42.520;27.448;2022-08-19T07:53:13;8.77;;;7.83;;
8574;SDS011;4325;42.520;27.448;2022-08-19T07:55:40;14.87;;;7.60;;
8574;SDS011;4325;42.520;27.448;2022-08-19T07:58:07;18.87;;;7.40;;
8574;SDS011;4325;42.520;27.448;2022-08-19T08:00:34;7.80;;;7.00;;
8574;SDS011;4325;42.520;27.448;2022-08-19T08:03:02;12.87;;;6.77;;
8574;SDS011;4325;42.520;27.448;2022-08-19T08:05:28;15.37;;;7.17;;
8574;SDS011;4325;42.520;27.448;2022-08-19T08:08:14;10.40;;;6.33;;
8574;SDS011;4325;42.520;27.448;2022-08-19T08:10:58;12.33;;;6.80;;
8574;SDS011;4325;42.520;27.448;2022-08-19T08:13:26;12.37;;;7.13;;
8574;SDS011;4325;42.520;27.448;2022-08-19T08:15:53;9.27;;;6.93;;
8574;SDS011;4325;42.520;27.448;2022-08-19T08:18:20;12.30;;;6.53;;
8574;SDS011;4325;42.520;27.448;2022-08-19T08:20:47;7.93;;;6.35;;
8574;SDS011;4325;42.520;27.448;2022-08-19T08:23:15;8.40;;;6.30;;
8574;SDS011;4325;42.520;27.448;2022-08-19T08:25:50;10.30;;;6.53;;
8574;SDS011;4325;42.520;27.448;2022-08-19T08:28:17;10.60;;;5.95;;
8574;SDS011;4325;42.520;27.448;2022-08-19T08:30:45;9.80;;;6.13;;
8574;SDS011;4325;42.520;27.448;2022-08-19T08:33:13;14.25;;;6.22;;
8574;SDS011;4325;42.520;27.448;2022-08-19T08:35:40;15.43;;;5.80;;
8574;SDS011;4325;42.520;27.448;2022-08-19T08:38:08;6.15;;;5.03;;
8574;SDS011;4325;42.520;27.448;2022-08-19T08:40:39;7.88;;;5.78;;
8574;SDS011;4325;42.520;27.448;2022-08-19T08:43:13;11.55;;;5.75;;
8574;SDS011;4325;42.520;27.448;2022-08-19T08:45:55;8.88;;;6.10;;
8574;SDS011;4325;42.520;27.448;2022-08-19T08:48:30;5.93;;;5.35;;
8574;SDS011;4325;42.520;27.448;2022-08-19T08:51:03;10.50;;;5.97;;
8574;SDS011;4325;42.520;27.448;2022-08-19T08:53:33;9.88;;;5.45;;
8574;SDS011;4325;42.520;27.448;2022-08-19T08:56:04;8.95;;;5.65;;
8574;SDS011;4325;42.520;27.448;2022-08-19T08:58:41;7.32;;;5.63;;
8574;SDS011;4325;42.520;27.448;2022-08-19T09:01:14;9.38;;;5.03;;
8574;SDS011;4325;42.520;27.448;2022-08-19T09:03:41;9.50;;;5.70;;
8574;SDS011;4325;42.520;27.448;2022-08-19T09:06:12;6.57;;;4.63;;
8574;SDS011;4325;42.520;27.448;2022-08-19T09:08:47;9.05;;;5.03;;
8574;SDS011;4325;42.520;27.448;2022-08-19T09:11:30;9.40;;;4.68;;
8574;SDS011;4325;42.520;27.448;2022-08-19T09:14:10;8.50;;;5.07;;
8574;SDS011;4325;42.520;27.448;2022-08-19T09:16:46;11.43;;;8.63;;
8574;SDS011;4325;42.520;27.448;2022-08-19T09:19:14;10.02;;;5.45;;
8574;SDS011;4325;42.520;27.448;2022-08-19T09:21:42;14.02;;;5.45;;
8574;SDS011;4325;42.520;27.448;2022-08-19T09:24:10;6.13;;;4.93;;
8574;SDS011;4325;42.520;27.448;2022-08-19T09:26:38;9.02;;;6.20;;
8574;SDS011;4325;42.520;27.448;2022-08-19T09:29:05;10.65;;;5.38;;
8574;SDS011;4325;42.520;27.448;2022-08-19T09:31:32;10.70;;;5.75;;
8574;SDS011;4325;42.520;27.448;2022-08-19T09:33:59;9.57;;;4.90;;
8574;SDS011;4325;42.520;27.448;2022-08-19T09:36:30;10.55;;;4.80;;
8574;SDS011;4325;42.520;27.448;2022-08-19T09:38:59;10.35;;;5.28;;
8574;SDS011;4325;42.520;27.448;2022-08-19T09:41:26;9.27;;;5.28;;
8574;SDS011;4325;42.520;27.448;2022-08-19T09:43:55;9.02;;;5.25;;
8574;SDS011;4325;42.520;27.448;2022-08-19T09:46:23;8.35;;;5.28;;
8574;SDS011;4325;42.520;27.448;2022-08-19T09:48:52;11.25;;;5.60;;
8574;SDS011;4325;42.520;27.448;2022-08-19T09:51:21;13.55;;;5.35;;
8574;SDS011;4325;42.520;27.448;2022-08-19T09:53:51;6.07;;;4.85;;
8574;SDS011;4325;42.520;27.448;2022-08-19T09:56:20;5.28;;;4.60;;
8574;SDS011;4325;42.520;27.448;2022-08-19T09:58:47;7.10;;;4.85;;
8574;SDS011;4325;42.520;27.448;2022-08-19T10:01:17;12.57;;;5.22;;
8574;SDS011;4325;42.520;27.448;2022-08-19T10:03:47;8.25;;;4.88;;
8574;SDS011;4325;42.520;27.448;2022-08-19T10:06:16;9.13;;;5.40;;
8574;SDS011;4325;42.520;27.448;2022-08-19T10:08:44;9.82;;;4.88;;
8574;SDS011;4325;42.520;27.448;2022-08-19T10:11:12;7.10;;;5.22;;
8574;SDS011;4325;42.520;27.448;2022-08-19T10:13:41;8.93;;;5.30;;
8574;SDS011;4325;42.520;27.448;2022-08-19T10:16:09;13.65;;;6.13;;
8574;SDS011;4325;42.520;27.448;2022-08-19T10:18:40;6.50;;;5.50;;
8574;SDS011;4325;42.520;27.448;2022-08-19T10:21:08;11.75;;;5.90;;
8574;SDS011;4325;42.520;27.448;2022-08-19T10:23:37;8.68;;;6.47;;
8574;SDS011;4325;42.520;27.448;2022-08-19T10:26:06;10.82;;;5.95;;
8574;SDS011;4325;42.520;27.448;2022-08-19T10:28:33;10.82;;;6.78;;
8574;SDS011;4325;42.520;27.448;2022-08-19T10:31:06;13.40;;;6.32;;
8574;SDS011;4325;42.520;27.448;2022-08-19T10:33:33;7.95;;;6.20;;
8574;SDS011;4325;42.520;27.448;2022-08-19T10:36:03;7.68;;;6.43;;
8574;SDS011;4325;42.520;27.448;2022-08-19T10:38:32;10.02;;;6.68;;
8574;SDS011;4325;42.520;27.448;2022-08-19T10:41:05;11.05;;;6.07;;
8574;SDS011;4325;42.520;27.448;2022-08-19T10:43:33;10.73;;;6.63;;
8574;SDS011;4325;42.520;27.448;2022-08-19T10:46:03;9.30;;;6.35;;
8574;SDS011;4325;42.520;27.448;2022-08-19T10:48:30;9.60;;;6.95;;
8574;SDS011;4325;42.520;27.448;2022-08-19T10:50:58;8.35;;;6.38;;
8574;SDS011;4325;42.520;27.448;2022-08-19T10:53:44;9.70;;;6.30;;
8574;SDS011;4325;42.520;27.448;2022-08-19T10:56:10;11.75;;;6.47;;
8574;SDS011;4325;42.520;27.448;2022-08-19T10:58:55;9.18;;;5.90;;
8574;SDS011;4325;42.520;27.448;2022-08-19T11:01:23;9.77;;;5.88;;
8574;SDS011;4325;42.520;27.448;2022-08-19T11:03:50;8.98;;;6.75;;
8574;SDS011;4325;42.520;27.448;2022-08-19T11:06:17;7.40;;;5.93;;
8574;SDS011;4325;42.520;27.448;2022-08-19T11:08:46;7.30;;;5.88;;
8574;SDS011;4325;42.520;27.448;2022-08-19T11:11:13;6.60;;;6.00;;
8574;SDS011;4325;42.520;27.448;2022-08-19T11:13:41;7.13;;;6.25;;
8574;SDS011;4325;42.520;27.448;2022-08-19T11:16:10;9.30;;;7.07;;
8574;SDS011;4325;42.520;27.448;2022-08-19T11:18:40;9.80;;;6.88;;
8574;SDS011;4325;42.520;27.448;2022-08-19T11:21:10;10.13;;;6.97;;
8574;SDS011;4325;42.520;27.448;2022-08-19T11:23:38;8.95;;;6.40;;
8574;SDS011;4325;42.520;27.448;2022-08-19T11:26:07;12.07;;;7.25;;
8574;SDS011;4325;42.520;27.448;2022-08-19T11:28:34;8.75;;;6.97;;
8574;SDS011;4325;42.520;27.448;2022-08-19T11:31:01;8.75;;;7.47;;
8574;SDS011;4325;42.520;27.448;2022-08-19T11:33:29;13.25;;;7.32;;
8574;SDS011;4325;42.520;27.448;2022-08-19T11:35:57;12.73;;;6.93;;
8574;SDS011;4325;42.520;27.448;2022-08-19T11:38:25;8.95;;;6.47;;
8574;SDS011;4325;42.520;27.448;2022-08-19T11:40:55;9.38;;;6.47;;
8574;SDS011;4325;42.520;27.448;2022-08-19T11:43:24;11.32;;;8.30;;
8574;SDS011;4325;42.520;27.448;2022-08-19T11:45:52;10.98;;;6.63;;
8574;SDS011;4325;42.520;27.448;2022-08-19T11:48:20;9.50;;;7.00;;
8574;SDS011;4325;42.520;27.448;2022-08-19T11:50:48;13.82;;;6.50;;
8574;SDS011;4325;42.520;27.448;2022-08-19T11:53:15;6.68;;;6.13;;
8574;SDS011;4325;42.520;27.448;2022-08-19T11:55:44;8.68;;;6.25;;
8574;SDS011;4325;42.520;27.448;2022-08-19T11:58:11;8.73;;;6.30;;
8574;SDS011;4325;42.520;27.448;2022-08-19T12:00:40;9.88;;;6.28;;
8574;SDS011;4325;42.520;27.448;2022-08-19T12:03:07;10.90;;;5.95;;
8574;SDS011;4325;42.520;27.448;2022-08-19T12:05:36;8.35;;;5.90;;
8574;SDS011;4325;42.520;27.448;2022-08-19T12:08:04;6.82;;;6.18;;
8574;SDS011;4325;42.520;27.448;2022-08-19T12:10:31;7.75;;;6.25;;
8574;SDS011;4325;42.520;27.448;2022-08-19T12:12:58;12.75;;;5.90;;
8574;SDS011;4325;42.520;27.448;2022-08-19T12:15:25;8.73;;;6.00;;
8574;SDS011;4325;42.520;27.448;2022-08-19T12:17:54;9.73;;;6.13;;
8574;SDS011;4325;42.520;27.448;2022-08-19T12:20:21;15.27;;;6.18;;
8574;SDS011;4325;42.520;27.448;2022-08-19T12:22:49;8.75;;;5.57;;
8574;SDS011;4325;42.520;27.448;2022-08-19T12:25:16;14.45;;;5.55;;
8574;SDS011;4325;42.520;27.448;2022-08-19T12:27:44;11.73;;;5.95;;
8574;SDS011;4325;42.520;27.448;2022-08-19T12:30:12;9.93;;;5.55;;
8574;SDS011;4325;42.520;27.448;2022-08-19T12:32:39;11.57;;;5.90;;
8574;SDS011;4325;42.520;27.448;2022-08-19T12:35:08;10.27;;;5.80;;
8574;SDS011;4325;42.520;27.448;2022-08-19T12:37:37;12.10;;;5.50;;
8574;SDS011;4325;42.520;27.448;2022-08-19T12:40:04;17.65;;;5.82;;
8574;SDS011;4325;42.520;27.448;2022-08-19T12:42:32;8.93;;;6.20;;
8574;SDS011;4325;42.520;27.448;2022-08-19T12:44:59;10.30;;;6.13;;
8574;SDS011;4325;42.520;27.448;2022-08-19T12:47:26;9.52;;;6.03;;
8574;SDS011;4325;42.520;27.448;2022-08-19T12:49:53;17.67;;;6.45;;
8574;SDS011;4325;42.520;27.448;2022-08-19T12:52:22;7.72;;;5.72;;
8574;SDS011;4325;42.520;27.448;2022-08-19T12:54:52;10.27;;;6.43;;
8574;SDS011;4325;42.520;27.448;2022-08-19T12:57:20;11.77;;;6.32;;
8574;SDS011;4325;42.520;27.448;2022-08-19T12:59:51;13.10;;;5.75;;
8574;SDS011;4325;42.520;27.448;2022-08-19T13:02:18;12.73;;;5.95;;
8574;SDS011;4325;42.520;27.448;2022-08-19T13:04:46;7.72;;;6.28;;
8574;SDS011;4325;42.520;27.448;2022-08-19T13:07:13;7.32;;;5.68;;
8574;SDS011;4325;42.520;27.448;2022-08-19T13:09:41;10.30;;;7.47;;
8574;SDS011;4325;42.520;27.448;2022-08-19T13:12:08;11.77;;;6.28;;
8574;SDS011;4325;42.520;27.448;2022-08-19T13:14:38;14.90;;;6.25;;
8574;SDS011;4325;42.520;27.448;2022-08-19T13:17:05;10.32;;;5.88;;
8574;SDS011;4325;42.520;27.448;2022-08-19T13:19:35;10.70;;;6.07;;
8574;SDS011;4325;42.520;27.448;2022-08-19T13:22:02;10.02;;;6.22;;
8574;SDS011;4325;42.520;27.448;2022-08-19T13:24:29;10.07;;;5.93;;
8574;SDS011;4325;42.520;27.448;2022-08-19T13:26:58;11.73;;;6.20;;
8574;SDS011;4325;42.520;27.448;2022-08-19T13:29:25;15.23;;;6.53;;
8574;SDS011;4325;42.520;27.448;2022-08-19T13:32:09;13.00;;;6.95;;
8574;SDS011;4325;42.520;27.448;2022-08-19T13:34:53;17.58;;;6.35;;
8574;SDS011;4325;42.520;27.448;2022-08-19T13:37:20;12.82;;;6.95;;
8574;SDS011;4325;42.520;27.448;2022-08-19T13:40:06;7.88;;;6.05;;
8574;SDS011;4325;42.520;27.448;2022-08-19T13:42:37;11.13;;;5.75;;
8574;SDS011;4325;42.520;27.448;2022-08-19T13:45:05;10.07;;;5.93;;
8574;SDS011;4325;42.520;27.448;2022-08-19T13:47:33;13.77;;;5.85;;
8574;SDS011;4325;42.520;27.448;2022-08-19T13:50:04;13.07;;;6.32;;
8574;SDS011;4325;42.520;27.448;2022-08-19T13:52:31;12.38;;;6.40;;
8574;SDS011;4325;42.520;27.448;2022-08-19T13:54:58;7.72;;;5.65;;
8574;SDS011;4325;42.520;27.448;2022-08-19T13:57:25;15.00;;;5.85;;
8574;SDS011;4325;42.520;27.448;2022-08-19T14:00:12;10.27;;;6.25;;
8574;SDS011;4325;42.520;27.448;2022-08-19T14:02:42;9.02;;;6.03;;
8574;SDS011;4325;42.520;27.448;2022-08-19T14:05:11;7.35;;;6.55;;
8574;SDS011;4325;42.520;27.448;2022-08-19T14:07:40;10.27;;;6.15;;
8574;SDS011;4325;42.520;27.448;2022-08-19T14:10:08;11.73;;;6.78;;
8574;SDS011;4325;42.520;27.448;2022-08-19T14:12:37;8.38;;;6.60;;
8574;SDS011;4325;42.520;27.448;2022-08-19T14:15:04;10.07;;;6.78;;
8574;SDS011;4325;42.520;27.448;2022-08-19T14:17:34;8.73;;;6.30;;
8574;SDS011;4325;42.520;27.448;2022-08-19T14:20:04;11.13;;;6.47;;
8574;SDS011;4325;42.520;27.448;2022-08-19T14:22:33;10.07;;;6.50;;
8574;SDS011;4325;42.520;27.448;2022-08-19T14:25:01;12.30;;;6.70;;
8574;SDS011;4325;42.520;27.448;2022-08-19T14:27:29;9.07;;;6.05;;
8574;SDS011;4325;42.520;27.448;2022-08-19T14:29:56;12.85;;;6.72;;
8574;SDS011;4325;42.520;27.448;2022-08-19T14:32:23;10.35;;;6.22;;
8574;SDS011;4325;42.520;27.448;2022-08-19T14:34:53;17.65;;;6.63;;
8574;SDS011;4325;42.520;27.448;2022-08-19T14:37:20;11.75;;;6.45;;
8574;SDS011;4325;42.520;27.448;2022-08-19T14:39:47;11.32;;;6.90;;
8574;SDS011;4325;42.520;27.448;2022-08-19T14:42:14;8.23;;;6.60;;
8574;SDS011;4325;42.520;27.448;2022-08-19T14:44:44;11.00;;;6.65;;
8574;SDS011;4325;42.520;27.448;2022-08-19T14:47:11;10.65;;;7.10;;
8574;SDS011;4325;42.520;27.448;2022-08-19T14:49:38;9.40;;;6.35;;
8574;SDS011;4325;42.520;27.448;2022-08-19T14:52:06;11.57;;;7.15;;
8574;SDS011;4325;42.520;27.448;2022-08-19T14:54:33;8.10;;;6.70;;
8574;SDS011;4325;42.520;27.448;2022-08-19T14:57:00;11.38;;;7.03;;